sensor_id;sensor_type;location;lat;lon;timestamp;pressure;altitude;pressure_sealevel;temperature;humidity
66164;BME280;52962;51.088;3.096;2023-06-10T00:00:05;100911.50;;;24.07;100.00
66164;BME280;52962;51.088;3.096;2023-06-10T00:02:39;100917.75;;;24.08;100.00
66164;BME280;52962;51.088;3.096;2023-06-10T00:05:09;100916.00;;;24.07;100.00
66164;BME280;52962;51.088;3.096;2023-06-10T00:07:38;100910.88;;;24.26;100.00
66164;BME280;52962;51.088;3.096;2023-06-10T00:10:08;100918.03;;;24.27;100.00
66164;BME280;52962;51.088;3.096;2023-06-10T00:12:37;100913.59;;;24.24;100.00
66164;BME280;52962;51.088;3.096;2023-06-10T00:15:08;100913.72;;;24.21;100.00
66164;BME280;52962;51.088;3.096;2023-06-10T00:17:36;100920.06;;;24.19;100.00
66164;BME280;52962;51.088;3.096;2023-06-10T00:20:10;100909.41;;;23.91;100.00
66164;BME280;52962;51.088;3.096;2023-06-10T00:22:40;100915.75;;;23.62;100.00
66164;BME280;52962;51.088;3.096;2023-06-10T00:25:09;100917.34;;;23.67;100.00
66164;BME280;52962;51.088;3.096;2023-06-10T00:27:38;100915.59;;;23.66;100.00
66164;BME280;52962;51.088;3.096;2023-06-10T00:30:07;100916.38;;;23.70;100.00
66164;BME280;52962;51.088;3.096;2023-06-10T00:32:36;100912.84;;;23.68;100.00
66164;BME280;52962;51.088;3.096;2023-06-10T00:35:05;100916.47;;;23.67;100.00
66164;BME280;52962;51.088;3.096;2023-06-10T00:37:36;100912.03;;;23.66;100.00
66164;BME280;52962;51.088;3.096;2023-06-10T00:40:06;100908.03;;;23.49;100.00
66164;BME280;52962;51.088;3.096;2023-06-10T00:42:36;100910.38;;;23.32;100.00
66164;BME280;52962;51.088;3.096;2023-06-10T00:45:05;100913.16;;;23.29;100.00
66164;BME280;52962;51.088;3.096;2023-06-10T00:47:35;100916.94;;;23.22;100.00
66164;BME280;52962;51.088;3.096;2023-06-10T00:50:05;100916.13;;;23.20;100.00
66164;BME280;52962;51.088;3.096;2023-06-10T00:52:36;100913.53;;;23.17;100.00
66164;BME280;52962;51.088;3.096;2023-06-10T00:55:05;100917.09;;;23.17;100.00
66164;BME280;52962;51.088;3.096;2023-06-10T00:57:35;100919.09;;;23.11;100.00
66164;BME280;52962;51.088;3.096;2023-06-10T01:00:05;100915.59;;;23.07;100.00
66164;BME280;52962;51.088;3.096;2023-06-10T01:02:35;100917.56;;;23.02;100.00
66164;BME280;52962;51.088;3.096;2023-06-10T01:05:04;100915.03;;;22.96;100.00
66164;BME280;52962;51.088;3.096;2023-06-10T01:07:37;100919.53;;;22.96;100.00
66164;BME280;52962;51.088;3.096;2023-06-10T01:10:13;100917.72;;;22.96;100.00
66164;BME280;52962;51.088;3.096;2023-06-10T01:12:52;100920.28;;;23.01;100.00
66164;BME280;52962;51.088;3.096;2023-06-10T01:15:23;100923.72;;;23.06;100.00
66164;BME280;52962;51.088;3.096;2023-06-10T01:17:59;100930.84;;;23.07;100.00
66164;BME280;52962;51.088;3.096;2023-06-10T01:20:30;100919.97;;;23.11;100.00
66164;BME280;52962;51.088;3.096;2023-06-10T01:23:01;100925.84;;;23.24;100.00
66164;BME280;52962;51.088;3.096;2023-06-10T01:25:31;100925.91;;;23.23;100.00
66164;BME280;52962;51.088;3.096;2023-06-10T01:28:07;100928.72;;;23.18;100.00
66164;BME280;52962;51.088;3.096;2023-06-10T01:30:39;100928.81;;;23.15;100.00
66164;BME280;52962;51.088;3.096;2023-06-10T01:33:11;100928.81;;;23.15;100.00
66164;BME280;52962;51.088;3.096;2023-06-10T01:35:41;100929.25;;;23.00;100.00
66164;BME280;52962;51.088;3.096;2023-06-10T01:38:14;100929.44;;;22.94;100.00
66164;BME280;52962;51.088;3.096;2023-06-10T01:40:43;100926.00;;;22.89;100.00
66164;BME280;52962;51.088;3.096;2023-06-10T01:43:13;100926.97;;;22.88;100.00
66164;BME280;52962;51.088;3.096;2023-06-10T01:45:41;100929.69;;;22.86;100.00
66164;BME280;52962;51.088;3.096;2023-06-10T01:48:09;100929.66;;;22.88;100.00
66164;BME280;52962;51.088;3.096;2023-06-10T01:50:38;100933.25;;;22.87;100.00
66164;BME280;52962;51.088;3.096;2023-06-10T01:53:07;100932.47;;;22.83;100.00
66164;BME280;52962;51.088;3.096;2023-06-10T01:55:36;100931.69;;;22.79;100.00
66164;BME280;52962;51.088;3.096;2023-06-10T01:58:05;100935.50;;;22.69;100.00
66164;BME280;52962;51.088;3.096;2023-06-10T02:00:33;100931.16;;;22.65;100.00
66164;BME280;52962;51.088;3.096;2023-06-10T02:03:01;100933.66;;;22.71;100.00
66164;BME280;52962;51.088;3.096;2023-06-10T02:05:29;100932.00;;;22.67;100.00
66164;BME280;52962;51.088;3.096;2023-06-10T02:07:58;100932.97;;;22.65;100.00
66164;BME280;52962;51.088;3.096;2023-06-10T02:10:26;100939.22;;;22.65;100.00
66164;BME280;52962;51.088;3.096;2023-06-10T02:12:58;100935.69;;;22.63;100.00
66164;BME280;52962;51.088;3.096;2023-06-10T02:15:26;100941.09;;;22.62;100.00
66164;BME280;52962;51.088;3.096;2023-06-10T02:17:54;100935.78;;;22.60;100.00
66164;BME280;52962;51.088;3.096;2023-06-10T02:20:22;100934.94;;;22.58;100.00
66164;BME280;52962;51.088;3.096;2023-06-10T02:22:50;100939.47;;;22.56;100.00
66164;BME280;52962;51.088;3.096;2023-06-10T02:25:19;100946.25;;;22.69;100.00
66164;BME280;52962;51.088;3.096;2023-06-10T02:27:47;100941.72;;;22.71;100.00
66164;BME280;52962;51.088;3.096;2023-06-10T02:30:16;100938.19;;;22.69;100.00
66164;BME280;52962;51.088;3.096;2023-06-10T02:32:45;100945.44;;;22.66;100.00
66164;BME280;52962;51.088;3.096;2023-06-10T02:35:17;100941.94;;;22.64;100.00
66164;BME280;52962;51.088;3.096;2023-06-10T02:37:45;100936.66;;;22.61;100.00
66164;BME280;52962;51.088;3.096;2023-06-10T02:40:14;100934.09;;;22.56;100.00
66164;BME280;52962;51.088;3.096;2023-06-10T02:42:42;100939.38;;;22.59;100.00
66164;BME280;52962;51.088;3.096;2023-06-10T02:45:10;100946.50;;;22.60;100.00
66164;BME280;52962;51.088;3.096;2023-06-10T02:47:43;100944.75;;;22.59;100.00
66164;BME280;52962;51.088;3.096;2023-06-10T02:50:12;100938.72;;;22.51;100.00
66164;BME280;52962;51.088;3.096;2023-06-10T02:52:51;100937.88;;;22.49;100.00
66164;BME280;52962;51.088;3.096;2023-06-10T02:55:19;100935.13;;;22.50;100.00
66164;BME280;52962;51.088;3.096;2023-06-10T02:57:54;100937.06;;;22.45;100.00
66164;BME280;52962;51.088;3.096;2023-06-10T03:00:23;100945.16;;;22.44;100.00
66164;BME280;52962;51.088;3.096;2023-06-10T03:02:53;100941.63;;;22.42;100.00
66164;BME280;52962;51.088;3.096;2023-06-10T03:05:30;100934.50;;;22.41;100.00
66164;BME280;52962;51.088;3.096;2023-06-10T03:08:01;100940.78;;;22.40;100.00
66164;BME280;52962;51.088;3.096;2023-06-10T03:10:32;100936.44;;;22.36;100.00
66164;BME280;52962;51.088;3.096;2023-06-10T03:13:02;100939.16;;;22.34;100.00
66164;BME280;52962;51.088;3.096;2023-06-10T03:15:31;100938.31;;;22.32;100.00
66164;BME280;52962;51.088;3.096;2023-06-10T03:18:05;100937.47;;;22.30;100.00
66164;BME280;52962;51.088;3.096;2023-06-10T03:20:35;100929.47;;;22.29;100.00
66164;BME280;52962;51.088;3.096;2023-06-10T03:23:05;100940.34;;;22.23;100.00
66164;BME280;52962;51.088;3.096;2023-06-10T03:25:35;100939.50;;;22.21;100.00
66164;BME280;52962;51.088;3.096;2023-06-10T03:28:04;100944.13;;;22.15;100.00
66164;BME280;52962;51.088;3.096;2023-06-10T03:30:34;100941.47;;;22.14;100.00
66164;BME280;52962;51.088;3.096;2023-06-10T03:33:05;100943.28;;;22.13;100.00
66164;BME280;52962;51.088;3.096;2023-06-10T03:35:33;100939.72;;;22.13;100.00
66164;BME280;52962;51.088;3.096;2023-06-10T03:38:04;100946.88;;;22.12;100.00
66164;BME280;52962;51.088;3.096;2023-06-10T03:40:33;100949.63;;;22.09;100.00
66164;BME280;52962;51.088;3.096;2023-06-10T03:43:01;100945.16;;;22.10;100.00
66164;BME280;52962;51.088;3.096;2023-06-10T03:45:30;100950.56;;;22.08;100.00
66164;BME280;52962;51.088;3.096;2023-06-10T03:48:00;100962.28;;;22.04;100.00
66164;BME280;52962;51.088;3.096;2023-06-10T03:50:44;100954.28;;;22.03;100.00
66164;BME280;52962;51.088;3.096;2023-06-10T03:53:14;100962.41;;;21.98;100.00
66164;BME280;52962;51.088;3.096;2023-06-10T03:55:43;100954.47;;;21.94;100.00
66164;BME280;52962;51.088;3.096;2023-06-10T03:58:14;100953.59;;;21.93;100.00
66164;BME280;52962;51.088;3.096;2023-06-10T04:00:45;100957.19;;;21.92;100.00
66164;BME280;52962;51.088;3.096;2023-06-10T04:03:13;100958.19;;;21.88;100.00
66164;BME280;52962;51.088;3.096;2023-06-10T04:05:47;100963.56;;;21.86;100.00
66164;BME280;52962;51.088;3.096;2023-06-10T04:08:15;100964.38;;;21.90;100.00
66164;BME280;52962;51.088;3.096;2023-06-10T04:10:43;100969.69;;;21.93;100.00
66164;BME280;52962;51.088;3.096;2023-06-10T04:13:12;100969.59;;;21.96;100.00
66164;BME280;52962;51.088;3.096;2023-06-10T04:15:50;100967.69;;;22.01;100.00
66164;BME280;52962;51.088;3.096;2023-06-10T04:18:19;100968.53;;;22.05;100.00
66164;BME280;52962;51.088;3.096;2023-06-10T04:20:50;100961.25;;;22.10;100.00
66164;BME280;52962;51.088;3.096;2023-06-10T04:23:18;100969.22;;;22.13;100.00
66164;BME280;52962;51.088;3.096;2023-06-10T04:25:47;100973.69;;;22.12;100.00
66164;BME280;52962;51.088;3.096;2023-06-10T04:28:15;100982.69;;;22.10;100.00
66164;BME280;52962;51.088;3.096;2023-06-10T04:30:43;100980.06;;;22.08;100.00
66164;BME280;52962;51.088;3.096;2023-06-10T04:33:13;100972.94;;;22.07;100.00
66164;BME280;52962;51.088;3.096;2023-06-10T04:35:41;100981.75;;;22.12;100.00
66164;BME280;52962;51.088;3.096;2023-06-10T04:38:14;100978.94;;;22.17;100.00
66164;BME280;52962;51.088;3.096;2023-06-10T04:40:43;100969.19;;;22.14;100.00
66164;BME280;52962;51.088;3.096;2023-06-10T04:43:13;100980.88;;;22.12;100.00
66164;BME280;52962;51.088;3.096;2023-06-10T04:45:44;100980.13;;;22.05;100.00
66164;BME280;52962;51.088;3.096;2023-06-10T04:48:13;100980.25;;;21.99;100.00
66164;BME280;52962;51.088;3.096;2023-06-10T04:50:42;100981.16;;;21.98;100.00
66164;BME280;52962;51.088;3.096;2023-06-10T04:53:10;100983.84;;;21.98;100.00
66164;BME280;52962;51.088;3.096;2023-06-10T04:55:44;100973.00;;;22.04;100.00
66164;BME280;52962;51.088;3.096;2023-06-10T04:58:13;100980.97;;;22.07;100.00
66164;BME280;52962;51.088;3.096;2023-06-10T05:00:41;100984.56;;;22.06;100.00
66164;BME280;52962;51.088;3.096;2023-06-10T05:03:10;100976.47;;;22.09;100.00
66164;BME280;52962;51.088;3.096;2023-06-10T05:05:39;100979.91;;;22.14;100.00
66164;BME280;52962;51.088;3.096;2023-06-10T05:08:07;100974.38;;;22.21;100.00
66164;BME280;52962;51.088;3.096;2023-06-10T05:10:35;100976.03;;;22.26;100.00
66164;BME280;52962;51.088;3.096;2023-06-10T05:13:04;100972.31;;;22.32;100.00
66164;BME280;52962;51.088;3.096;2023-06-10T05:15:32;100974.88;;;22.36;100.00
66164;BME280;52962;51.088;3.096;2023-06-10T05:18:01;100982.75;;;22.42;100.00
66164;BME280;52962;51.088;3.096;2023-06-10T05:20:30;100978.19;;;22.46;100.00
66164;BME280;52962;51.088;3.096;2023-06-10T05:22:58;100980.84;;;22.47;100.00
66164;BME280;52962;51.088;3.096;2023-06-10T05:25:28;100973.50;;;22.54;100.00
66164;BME280;52962;51.088;3.096;2023-06-10T05:27:57;100973.34;;;22.60;100.00
66164;BME280;52962;51.088;3.096;2023-06-10T05:30:27;100975.03;;;22.64;100.00
66164;BME280;52962;51.088;3.096;2023-06-10T05:32:55;100971.34;;;22.68;100.00
66164;BME280;52962;51.088;3.096;2023-06-10T05:35:24;100972.13;;;22.72;100.00
66164;BME280;52962;51.088;3.096;2023-06-10T05:37:52;100976.41;;;22.80;100.00
66164;BME280;52962;51.088;3.096;2023-06-10T05:40:20;100980.72;;;22.86;100.00
66164;BME280;52962;51.088;3.096;2023-06-10T05:42:49;100979.53;;;22.95;100.00
66164;BME280;52962;51.088;3.096;2023-06-10T05:45:17;100985.66;;;23.00;100.00
66164;BME280;52962;51.088;3.096;2023-06-10T05:47:46;100988.09;;;23.09;100.00
66164;BME280;52962;51.088;3.096;2023-06-10T05:50:15;100988.75;;;23.17;100.00
66164;BME280;52962;51.088;3.096;2023-06-10T05:52:43;100985.88;;;23.23;100.00
66164;BME280;52962;51.088;3.096;2023-06-10T05:55:11;100986.72;;;23.25;100.00
66164;BME280;52962;51.088;3.096;2023-06-10T05:57:41;100987.38;;;23.33;100.00
66164;BME280;52962;51.088;3.096;2023-06-10T06:00:10;100985.34;;;23.41;100.00
66164;BME280;52962;51.088;3.096;2023-06-10T06:02:38;100985.16;;;23.47;100.00
66164;BME280;52962;51.088;3.096;2023-06-10T06:05:08;100990.38;;;23.54;100.00
66164;BME280;52962;51.088;3.096;2023-06-10T06:07:37;100984.81;;;23.60;100.00
66164;BME280;52962;51.088;3.096;2023-06-10T06:10:06;100996.16;;;23.69;100.00
66164;BME280;52962;51.088;3.096;2023-06-10T06:12:36;100997.53;;;23.83;100.00
66164;BME280;52962;51.088;3.096;2023-06-10T06:15:05;100997.16;;;23.93;100.00
66164;BME280;52962;51.088;3.096;2023-06-10T06:17:35;100998.75;;;23.99;100.00
66164;BME280;52962;51.088;3.096;2023-06-10T06:20:05;100993.91;;;24.10;100.00
66164;BME280;52962;51.088;3.096;2023-06-10T06:22:35;100997.00;;;24.26;100.00
66164;BME280;52962;51.088;3.096;2023-06-10T06:25:03;100995.56;;;24.42;100.00
66164;BME280;52962;51.088;3.096;2023-06-10T06:27:32;100996.63;;;24.63;100.00
66164;BME280;52962;51.088;3.096;2023-06-10T06:30:00;101004.16;;;24.78;100.00
66164;BME280;52962;51.088;3.096;2023-06-10T06:32:29;101011.81;;;24.90;100.00
66164;BME280;52962;51.088;3.096;2023-06-10T06:34:58;101011.91;;;25.12;100.00
66164;BME280;52962;51.088;3.096;2023-06-10T06:37:26;101008.50;;;25.30;100.00
66164;BME280;52962;51.088;3.096;2023-06-10T06:40:12;101011.69;;;25.41;100.00
66164;BME280;52962;51.088;3.096;2023-06-10T06:42:40;101015.78;;;25.52;100.00
66164;BME280;52962;51.088;3.096;2023-06-10T06:45:16;101006.31;;;25.65;100.00
66164;BME280;52962;51.088;3.096;2023-06-10T06:47:45;101013.03;;;25.77;100.00
66164;BME280;52962;51.088;3.096;2023-06-10T06:50:13;101010.84;;;25.86;100.00
66164;BME280;52962;51.088;3.096;2023-06-10T06:52:41;101007.78;;;25.95;100.00
66164;BME280;52962;51.088;3.096;2023-06-10T06:55:10;101002.91;;;26.03;100.00
66164;BME280;52962;51.088;3.096;2023-06-10T06:57:39;101012.41;;;26.14;100.00
66164;BME280;52962;51.088;3.096;2023-06-10T07:00:08;101015.34;;;26.29;100.00
66164;BME280;52962;51.088;3.096;2023-06-10T07:02:36;101010.59;;;26.36;100.00
66164;BME280;52962;51.088;3.096;2023-06-10T07:05:05;101013.22;;;26.37;100.00
66164;BME280;52962;51.088;3.096;2023-06-10T07:07:35;101022.75;;;26.46;100.00
66164;BME280;52962;51.088;3.096;2023-06-10T07:10:03;101022.75;;;26.46;100.00
66164;BME280;52962;51.088;3.096;2023-06-10T07:12:33;101013.66;;;26.69;100.00
66164;BME280;52962;51.088;3.096;2023-06-10T07:15:02;101022.09;;;26.82;100.00
66164;BME280;52962;51.088;3.096;2023-06-10T07:17:30;101017.31;;;26.88;100.00
66164;BME280;52962;51.088;3.096;2023-06-10T07:19:58;101020.63;;;26.95;100.00
66164;BME280;52962;51.088;3.096;2023-06-10T07:22:26;101007.94;;;26.97;100.00
66164;BME280;52962;51.088;3.096;2023-06-10T07:24:55;101018.63;;;27.00;100.00
66164;BME280;52962;51.088;3.096;2023-06-10T07:27:23;101016.41;;;27.08;100.00
66164;BME280;52962;51.088;3.096;2023-06-10T07:29:53;101021.41;;;27.17;100.00
66164;BME280;52962;51.088;3.096;2023-06-10T07:32:21;101017.81;;;27.56;100.00
66164;BME280;52962;51.088;3.096;2023-06-10T07:34:50;101021.00;;;27.26;99.25
66164;BME280;52962;51.088;3.096;2023-06-10T07:37:19;101023.56;;;27.29;100.00
66164;BME280;52962;51.088;3.096;2023-06-10T07:39:48;101024.38;;;27.50;100.00
66164;BME280;52962;51.088;3.096;2023-06-10T07:42:16;101032.03;;;27.61;100.00
66164;BME280;52962;51.088;3.096;2023-06-10T07:44:45;101030.94;;;28.20;100.00
66164;BME280;52962;51.088;3.096;2023-06-10T07:47:14;101033.09;;;28.49;98.13
66164;BME280;52962;51.088;3.096;2023-06-10T07:49:42;101035.47;;;28.38;93.80
66164;BME280;52962;51.088;3.096;2023-06-10T07:52:11;101034.59;;;28.38;96.25
66164;BME280;52962;51.088;3.096;2023-06-10T07:54:39;101038.97;;;28.40;96.30
66164;BME280;52962;51.088;3.096;2023-06-10T07:57:07;101037.22;;;28.39;91.89
66164;BME280;52962;51.088;3.096;2023-06-10T07:59:35;101037.78;;;28.46;93.00
66164;BME280;52962;51.088;3.096;2023-06-10T08:02:04;101036.75;;;28.48;91.80
66164;BME280;52962;51.088;3.096;2023-06-10T08:04:33;101037.47;;;28.52;93.65
66164;BME280;52962;51.088;3.096;2023-06-10T08:07:03;101039.88;;;28.75;94.57
66164;BME280;52962;51.088;3.096;2023-06-10T08:09:31;101036.56;;;28.87;91.90
66164;BME280;52962;51.088;3.096;2023-06-10T08:11:59;101037.44;;;28.88;90.52
66164;BME280;52962;51.088;3.096;2023-06-10T08:14:28;101034.41;;;28.94;94.87
66164;BME280;52962;51.088;3.096;2023-06-10T08:16:56;101033.72;;;28.72;94.84
66164;BME280;52962;51.088;3.096;2023-06-10T08:19:25;101028.31;;;28.54;92.85
66164;BME280;52962;51.088;3.096;2023-06-10T08:21:54;101030.22;;;28.52;90.76
66164;BME280;52962;51.088;3.096;2023-06-10T08:24:23;101032.84;;;28.54;90.75
66164;BME280;52962;51.088;3.096;2023-06-10T08:26:51;101030.53;;;28.81;91.79
66164;BME280;52962;51.088;3.096;2023-06-10T08:29:19;101029.28;;;29.05;88.80
66164;BME280;52962;51.088;3.096;2023-06-10T08:31:48;101024.81;;;29.04;85.73
66164;BME280;52962;51.088;3.096;2023-06-10T08:34:16;101030.97;;;29.23;89.00
66164;BME280;52962;51.088;3.096;2023-06-10T08:36:44;101028.34;;;29.22;89.36
66164;BME280;52962;51.088;3.096;2023-06-10T08:39:14;101030.81;;;29.26;88.68
66164;BME280;52962;51.088;3.096;2023-06-10T08:41:43;101037.00;;;28.78;88.63
66164;BME280;52962;51.088;3.096;2023-06-10T08:50:23;101031.50;;;29.30;87.65
66164;BME280;52962;51.088;3.096;2023-06-10T08:52:54;101030.63;;;29.29;87.75
66164;BME280;52962;51.088;3.096;2023-06-10T08:55:29;101025.44;;;29.42;84.50
66164;BME280;52962;51.088;3.096;2023-06-10T08:57:59;101034.59;;;29.57;86.14
66164;BME280;52962;51.088;3.096;2023-06-10T09:00:29;101031.16;;;29.53;83.29
66164;BME280;52962;51.088;3.096;2023-06-10T09:02:58;101039.06;;;29.89;84.22
66164;BME280;52962;51.088;3.096;2023-06-10T09:05:33;101032.69;;;29.90;83.92
66164;BME280;52962;51.088;3.096;2023-06-10T09:08:04;101034.25;;;29.79;82.44
66164;BME280;52962;51.088;3.096;2023-06-10T09:10:34;101032.59;;;29.76;84.06
66164;BME280;52962;51.088;3.096;2023-06-10T09:13:02;101034.41;;;30.23;83.77
66164;BME280;52962;51.088;3.096;2023-06-10T09:15:30;101029.94;;;30.22;80.00
66164;BME280;52962;51.088;3.096;2023-06-10T09:17:59;101027.56;;;30.32;78.67
66164;BME280;52962;51.088;3.096;2023-06-10T09:20:27;101029.00;;;30.53;82.35
66164;BME280;52962;51.088;3.096;2023-06-10T09:22:57;101021.31;;;30.45;73.66
66164;BME280;52962;51.088;3.096;2023-06-10T09:25:35;101029.84;;;30.39;77.31
66164;BME280;52962;51.088;3.096;2023-06-10T09:28:08;101033.16;;;30.44;79.94
66164;BME280;52962;51.088;3.096;2023-06-10T09:30:40;101022.78;;;30.51;79.24
66164;BME280;52962;51.088;3.096;2023-06-10T09:33:13;101033.16;;;30.44;79.25
66164;BME280;52962;51.088;3.096;2023-06-10T09:35:46;101031.03;;;30.49;74.89
66164;BME280;52962;51.088;3.096;2023-06-10T09:38:19;101026.47;;;30.66;78.44
66164;BME280;52962;51.088;3.096;2023-06-10T09:40:49;101028.47;;;30.92;75.68
66164;BME280;52962;51.088;3.096;2023-06-10T09:43:18;101029.16;;;30.96;74.09
66164;BME280;52962;51.088;3.096;2023-06-10T09:45:48;101022.66;;;30.98;72.81
66164;BME280;52962;51.088;3.096;2023-06-10T09:48:16;101027.34;;;31.10;74.08
66164;BME280;52962;51.088;3.096;2023-06-10T09:50:46;101021.22;;;31.21;75.68
66164;BME280;52962;51.088;3.096;2023-06-10T09:53:17;101019.78;;;31.44;75.62
66164;BME280;52962;51.088;3.096;2023-06-10T09:55:45;101017.81;;;31.46;72.16
66164;BME280;52962;51.088;3.096;2023-06-10T09:58:14;101032.41;;;31.59;72.45
66164;BME280;52962;51.088;3.096;2023-06-10T10:00:42;101034.16;;;31.46;69.05
66164;BME280;52962;51.088;3.096;2023-06-10T10:03:22;101028.41;;;31.50;67.19
66164;BME280;52962;51.088;3.096;2023-06-10T10:05:57;101034.25;;;31.44;69.52
66164;BME280;52962;51.088;3.096;2023-06-10T10:08:28;101040.75;;;31.28;71.94
66164;BME280;52962;51.088;3.096;2023-06-10T10:10:57;101034.38;;;31.14;68.43
66164;BME280;52962;51.088;3.096;2023-06-10T10:13:26;101027.31;;;30.96;67.28
66164;BME280;52962;51.088;3.096;2023-06-10T10:15:57;101032.78;;;31.25;73.89
66164;BME280;52962;51.088;3.096;2023-06-10T10:18:29;101043.28;;;31.31;64.09
66164;BME280;52962;51.088;3.096;2023-06-10T10:21:01;101033.00;;;31.36;67.69
66164;BME280;52962;51.088;3.096;2023-06-10T10:23:36;101037.25;;;31.26;68.48
66164;BME280;52962;51.088;3.096;2023-06-10T10:26:08;101036.97;;;31.30;67.24
66164;BME280;52962;51.088;3.096;2023-06-10T10:28:41;101038.31;;;31.23;65.17
66164;BME280;52962;51.088;3.096;2023-06-10T10:31:12;101037.16;;;31.27;64.74
66164;BME280;52962;51.088;3.096;2023-06-10T10:33:48;101030.75;;;31.28;65.70
66164;BME280;52962;51.088;3.096;2023-06-10T10:36:20;101027.84;;;31.31;61.19
66164;BME280;52962;51.088;3.096;2023-06-10T10:38:50;101023.84;;;31.37;63.36
66164;BME280;52962;51.088;3.096;2023-06-10T10:41:19;101026.56;;;31.37;61.39
66164;BME280;52962;51.088;3.096;2023-06-10T10:43:49;101026.69;;;31.35;60.83
66164;BME280;52962;51.088;3.096;2023-06-10T10:46:19;101022.28;;;31.61;57.93
66164;BME280;52962;51.088;3.096;2023-06-10T10:48:52;101028.72;;;31.74;61.53
66164;BME280;52962;51.088;3.096;2023-06-10T10:51:22;101023.06;;;31.63;55.07
66164;BME280;52962;51.088;3.096;2023-06-10T10:54:13;101020.75;;;31.71;54.82
66164;BME280;52962;51.088;3.096;2023-06-10T10:57:12;101017.44;;;31.80;58.04
66164;BME280;52962;51.088;3.096;2023-06-10T11:02:36;101018.59;;;31.62;52.50
66164;BME280;52962;51.088;3.096;2023-06-10T11:05:07;101021.31;;;31.76;54.18
66164;BME280;52962;51.088;3.096;2023-06-10T11:07:36;101006.81;;;31.62;46.19
66164;BME280;52962;51.088;3.096;2023-06-10T11:10:11;101020.66;;;31.73;46.14
66164;BME280;52962;51.088;3.096;2023-06-10T11:12:52;101012.19;;;31.77;46.05
66164;BME280;52962;51.088;3.096;2023-06-10T11:15:24;101013.44;;;31.86;44.55
66164;BME280;52962;51.088;3.096;2023-06-10T11:18:19;101012.59;;;32.12;45.99
66164;BME280;52962;51.088;3.096;2023-06-10T11:20:53;101013.53;;;31.84;44.53
66164;BME280;52962;51.088;3.096;2023-06-10T11:23:33;101001.09;;;31.80;46.92
66164;BME280;52962;51.088;3.096;2023-06-10T11:26:21;101003.78;;;31.95;47.02
66164;BME280;52962;51.088;3.096;2023-06-10T11:29:06;100999.06;;;32.11;45.94
66164;BME280;52962;51.088;3.096;2023-06-10T11:31:44;100991.66;;;32.13;45.75
66164;BME280;52962;51.088;3.096;2023-06-10T11:34:13;100997.56;;;32.19;43.34
66164;BME280;52962;51.088;3.096;2023-06-10T11:36:43;101004.41;;;32.39;45.19
66164;BME280;52962;51.088;3.096;2023-06-10T11:39:12;101000.19;;;32.21;43.40
66164;BME280;52962;51.088;3.096;2023-06-10T11:41:42;100999.97;;;32.24;44.82
66164;BME280;52962;51.088;3.096;2023-06-10T11:44:12;101006.75;;;32.31;42.97
66164;BME280;52962;51.088;3.096;2023-06-10T11:46:47;101005.72;;;32.46;41.99
66164;BME280;52962;51.088;3.096;2023-06-10T11:49:16;101006.28;;;32.51;41.52
66164;BME280;52962;51.088;3.096;2023-06-10T11:51:44;100997.13;;;32.53;42.53
66164;BME280;52962;51.088;3.096;2023-06-10T11:54:17;101008.34;;;32.48;43.91
66164;BME280;52962;51.088;3.096;2023-06-10T11:56:46;101002.66;;;32.38;43.29
66164;BME280;52962;51.088;3.096;2023-06-10T11:59:15;101000.47;;;32.43;40.41
66164;BME280;52962;51.088;3.096;2023-06-10T12:01:45;101002.03;;;32.47;41.80
66164;BME280;52962;51.088;3.096;2023-06-10T12:04:15;100987.72;;;32.44;43.28
66164;BME280;52962;51.088;3.096;2023-06-10T12:06:46;100998.06;;;32.39;44.39
66164;BME280;52962;51.088;3.096;2023-06-10T12:09:19;100996.13;;;32.41;42.81
66164;BME280;52962;51.088;3.096;2023-06-10T12:11:56;100985.44;;;32.50;45.07
66164;BME280;52962;51.088;3.096;2023-06-10T12:14:52;100991.88;;;32.49;41.77
66164;BME280;52962;51.088;3.096;2023-06-10T12:17:36;100987.19;;;32.51;42.30
66164;BME280;52962;51.088;3.096;2023-06-10T12:20:06;100984.69;;;32.48;41.46
66164;BME280;52962;51.088;3.096;2023-06-10T12:22:39;100984.91;;;32.45;41.46
66164;BME280;52962;51.088;3.096;2023-06-10T12:25:08;100977.56;;;32.33;44.07
66164;BME280;52962;51.088;3.096;2023-06-10T12:27:40;100985.88;;;32.44;41.67
66164;BME280;52962;51.088;3.096;2023-06-10T12:30:19;100980.00;;;32.50;41.13
66164;BME280;52962;51.088;3.096;2023-06-10T12:32:48;100983.03;;;32.46;41.40
66164;BME280;52962;51.088;3.096;2023-06-10T12:35:18;100980.63;;;32.41;40.32
66164;BME280;52962;51.088;3.096;2023-06-10T12:37:55;100980.97;;;32.10;40.29
66164;BME280;52962;51.088;3.096;2023-06-10T12:40:28;100976.53;;;32.22;41.82
66164;BME280;52962;51.088;3.096;2023-06-10T12:42:58;100976.38;;;32.37;40.98
66164;BME280;52962;51.088;3.096;2023-06-10T12:45:27;100976.75;;;32.58;41.48
66164;BME280;52962;51.088;3.096;2023-06-10T12:48:07;100976.53;;;32.74;40.98
66164;BME280;52962;51.088;3.096;2023-06-10T12:50:36;100981.09;;;32.61;41.67
66164;BME280;52962;51.088;3.096;2023-06-10T12:53:06;100980.25;;;32.73;41.37
66164;BME280;52962;51.088;3.096;2023-06-10T12:55:34;100984.13;;;32.83;40.44
66164;BME280;52962;51.088;3.096;2023-06-10T12:58:04;100974.41;;;33.04;39.33
66164;BME280;52962;51.088;3.096;2023-06-10T13:00:33;100975.91;;;33.34;39.10
66164;BME280;52962;51.088;3.096;2023-06-10T13:03:02;100963.28;;;33.07;38.51
66164;BME280;52962;51.088;3.096;2023-06-10T13:05:33;100960.66;;;32.80;38.13
66164;BME280;52962;51.088;3.096;2023-06-10T13:08:02;100960.88;;;32.90;38.81